createdAt,value
2018-06-21T00:00:17.115Z,19.56
2018-06-21T00:01:17.117Z,19.55
2018-06-21T00:02:17.118Z,19.52
2018-06-21T00:03:17.122Z,19.56
2018-06-21T00:04:17.124Z,19.52
2018-06-21T00:05:17.127Z,19.48
2018-06-21T00:06:17.128Z,19.55
2018-06-21T00:07:17.130Z,19.49
2018-06-21T00:08:17.135Z,19.48
2018-06-21T00:09:17.136Z,19.41
2018-06-21T00:10:17.138Z,19.44
2018-06-21T00:11:17.140Z,19.47
2018-06-21T00:12:17.146Z,19.44
2018-06-21T00:13:17.146Z,19.48
2018-06-21T00:14:17.148Z,19.49
2018-06-21T00:15:17.151Z,19.48
2018-06-21T00:16:17.154Z,19.35
2018-06-21T00:17:17.156Z,19.49
2018-06-21T00:18:17.158Z,19.47
2018-06-21T00:19:17.163Z,19.45
2018-06-21T00:20:17.163Z,19.45
2018-06-21T00:21:17.166Z,19.37
2018-06-21T00:22:17.166Z,19.34
2018-06-21T00:23:17.169Z,19.27
2018-06-21T00:24:17.172Z,19.38
2018-06-21T00:25:17.176Z,19.30
2018-06-21T00:26:17.175Z,19.26
2018-06-21T00:27:17.179Z,19.23
2018-06-21T00:28:17.183Z,19.19
2018-06-21T00:29:17.244Z,19.22
2018-06-21T00:30:17.185Z,19.17
2018-06-21T00:31:17.187Z,19.17
2018-06-21T00:32:17.191Z,19.19
2018-06-21T00:33:17.192Z,19.05
2018-06-21T00:34:17.193Z,19.07
2018-06-21T00:35:17.196Z,19.12
2018-06-21T00:36:17.200Z,19.12
2018-06-21T00:37:17.203Z,19.11
2018-06-21T00:38:17.204Z,19.08
2018-06-21T00:39:17.205Z,19.08
2018-06-21T00:40:17.208Z,19.09
2018-06-21T00:41:17.211Z,19.07
2018-06-21T00:42:17.211Z,19.08
2018-06-21T00:43:17.214Z,19.08
2018-06-21T00:44:17.217Z,18.97
2018-06-21T00:45:17.218Z,18.97
2018-06-21T00:46:17.220Z,19.07
2018-06-21T00:47:17.222Z,19.01
2018-06-21T00:48:17.226Z,18.91
2018-06-21T00:49:17.227Z,19.04
2018-06-21T00:50:17.228Z,18.86
2018-06-21T00:51:17.234Z,18.89
2018-06-21T00:52:17.235Z,18.91
2018-06-21T00:53:17.237Z,18.88
2018-06-21T00:54:17.242Z,18.79
2018-06-21T00:55:17.240Z,18.76
2018-06-21T00:56:17.242Z,18.71
2018-06-21T00:57:17.245Z,18.76
2018-06-21T00:58:17.246Z,18.73
2018-06-21T00:59:17.247Z,18.70
2018-06-21T01:00:17.250Z,18.66
2018-06-21T01:01:17.254Z,18.68
2018-06-21T01:02:17.254Z,18.67
2018-06-21T01:03:17.257Z,18.67
2018-06-21T01:04:17.258Z,18.55
2018-06-21T01:05:17.260Z,18.60
2018-06-21T01:06:17.266Z,18.64
2018-06-21T01:07:17.264Z,18.58
2018-06-21T01:08:17.266Z,18.60
2018-06-21T01:09:17.270Z,18.60
2018-06-21T01:10:17.269Z,18.58
2018-06-21T01:11:17.272Z,18.58
2018-06-21T01:12:17.275Z,18.52
2018-06-21T01:13:17.276Z,18.60
2018-06-21T01:14:17.278Z,18.58
2018-06-21T01:15:17.282Z,18.60
2018-06-21T01:16:17.283Z,18.60
2018-06-21T01:17:17.284Z,18.60
2018-06-21T01:18:17.285Z,18.57
2018-06-21T01:19:17.286Z,18.67
2018-06-21T01:20:17.290Z,18.61
2018-06-21T01:21:17.291Z,18.66
2018-06-21T01:22:17.294Z,18.57
2018-06-21T01:23:17.295Z,18.60
2018-06-21T01:24:17.297Z,18.63
2018-06-21T01:25:17.304Z,18.53
2018-06-21T01:26:17.301Z,18.58
2018-06-21T01:27:17.302Z,18.58
2018-06-21T01:28:17.305Z,18.67
2018-06-21T01:29:17.307Z,18.64
2018-06-21T01:30:17.307Z,18.70
2018-06-21T01:31:17.310Z,18.66
2018-06-21T01:32:17.311Z,18.68
2018-06-21T01:33:17.314Z,18.73
2018-06-21T01:34:17.315Z,18.71
2018-06-21T01:35:17.318Z,18.66
2018-06-21T01:36:17.320Z,18.67
2018-06-21T01:37:17.323Z,18.71
2018-06-21T01:38:17.328Z,18.71
2018-06-21T01:39:17.325Z,18.70
2018-06-21T01:40:17.327Z,18.70
2018-06-21T01:41:17.329Z,18.70
2018-06-21T01:42:17.330Z,18.67
2018-06-21T01:43:17.332Z,18.66
2018-06-21T01:44:17.336Z,18.66
2018-06-21T01:45:17.335Z,18.67
2018-06-21T01:46:17.337Z,18.64
2018-06-21T01:47:17.339Z,18.71
2018-06-21T01:48:17.340Z,18.66
2018-06-21T01:49:17.342Z,18.67
2018-06-21T01:50:17.344Z,18.66
2018-06-21T01:51:17.346Z,18.68
2018-06-21T01:52:17.348Z,18.55
2018-06-21T01:53:17.351Z,18.57
2018-06-21T01:54:17.351Z,18.68
2018-06-21T01:55:17.354Z,18.64
2018-06-21T01:56:17.357Z,18.57
2018-06-21T01:57:17.356Z,18.55
2018-06-21T01:58:17.358Z,18.51
2018-06-21T01:59:17.361Z,18.39
2018-06-21T02:00:17.362Z,18.49
2018-06-21T02:01:17.377Z,18.48
2018-06-21T02:02:17.364Z,18.49
2018-06-21T02:03:17.368Z,18.41
2018-06-21T02:04:17.370Z,18.46
2018-06-21T02:05:17.370Z,18.31
2018-06-21T02:06:17.372Z,18.43
2018-06-21T02:07:17.373Z,18.36
2018-06-21T02:08:17.376Z,18.36
2018-06-21T02:09:17.378Z,18.41
2018-06-21T02:10:17.381Z,18.36
2018-06-21T02:11:17.381Z,18.51
2018-06-21T02:12:17.382Z,18.46
2018-06-21T02:13:17.389Z,18.41
2018-06-21T02:14:17.390Z,18.46
2018-06-21T02:15:17.387Z,18.49
2018-06-21T02:16:17.388Z,18.45
2018-06-21T02:17:17.391Z,18.49
2018-06-21T02:18:17.391Z,18.46
2018-06-21T02:19:17.397Z,18.39
2018-06-21T02:20:17.396Z,18.49
2018-06-21T02:21:17.397Z,18.49
2018-06-21T02:22:17.400Z,18.36
2018-06-21T02:23:17.404Z,18.46
2018-06-21T02:24:17.402Z,18.49
2018-06-21T02:25:17.408Z,18.43
2018-06-21T02:26:17.404Z,18.39
2018-06-21T02:27:17.407Z,18.51
2018-06-21T02:28:17.409Z,18.34
2018-06-21T02:29:17.410Z,18.41
2018-06-21T02:30:17.415Z,18.39
2018-06-21T02:31:17.414Z,18.30
2018-06-21T02:32:17.416Z,18.27
2018-06-21T02:33:17.421Z,18.30
2018-06-21T02:34:17.451Z,18.30
2018-06-21T02:35:17.421Z,18.13
2018-06-21T02:36:17.422Z,18.23
2018-06-21T02:37:17.424Z,18.16
2018-06-21T02:38:17.424Z,18.19
2018-06-21T02:39:17.428Z,18.19
2018-06-21T02:40:17.428Z,18.12
2018-06-21T02:41:17.459Z,18.15
2018-06-21T02:42:17.431Z,18.15
2018-06-21T02:43:17.433Z,18.16
2018-06-21T02:44:17.434Z,18.16
2018-06-21T02:45:17.436Z,18.16
2018-06-21T02:46:17.438Z,18.09
2018-06-21T02:47:17.440Z,18.03
2018-06-21T02:48:17.441Z,18.15
2018-06-21T02:49:17.441Z,18.06
2018-06-21T02:50:17.444Z,18.08
2018-06-21T02:51:17.444Z,18.13
2018-06-21T02:52:17.446Z,18.18
2018-06-21T02:53:17.449Z,18.15
2018-06-21T02:54:17.452Z,18.09
2018-06-21T02:55:17.453Z,18.05
2018-06-21T02:56:17.456Z,17.97
2018-06-21T02:57:17.456Z,18.06
2018-06-21T02:58:17.455Z,18.03
2018-06-21T02:59:17.459Z,18.03
2018-06-21T03:00:17.458Z,17.94
2018-06-21T03:01:17.462Z,17.98
2018-06-21T03:02:17.461Z,18.02
2018-06-21T03:03:17.472Z,17.93
2018-06-21T03:04:17.465Z,17.91
2018-06-21T03:05:17.468Z,17.98
2018-06-21T03:06:17.467Z,17.97
2018-06-21T03:07:17.471Z,17.97
2018-06-21T03:08:17.471Z,17.97
2018-06-21T03:09:17.473Z,18.00
2018-06-21T03:10:17.481Z,17.97
2018-06-21T03:11:17.523Z,17.95
2018-06-21T03:12:17.478Z,18.02
2018-06-21T03:13:17.480Z,17.95
2018-06-21T03:14:17.479Z,18.00
2018-06-21T03:15:17.479Z,17.94
2018-06-21T03:16:17.482Z,17.94
2018-06-21T03:17:17.485Z,18.02
2018-06-21T03:18:17.483Z,17.97
2018-06-21T03:19:17.484Z,17.94
2018-06-21T03:20:17.487Z,18.02
2018-06-21T03:21:17.489Z,17.95
2018-06-21T03:22:17.490Z,17.95
2018-06-21T03:23:17.490Z,18.03
2018-06-21T03:24:17.493Z,18.03
2018-06-21T03:25:17.494Z,17.95
2018-06-21T03:26:17.499Z,18.05
2018-06-21T03:27:17.496Z,17.95
2018-06-21T03:28:17.499Z,17.95
2018-06-21T03:29:17.500Z,18.12
2018-06-21T03:30:17.500Z,17.97
2018-06-21T03:31:17.503Z,17.97
2018-06-21T03:32:17.503Z,18.08
2018-06-21T03:33:17.506Z,17.94
2018-06-21T03:34:17.506Z,17.98
2018-06-21T03:35:17.527Z,17.97
2018-06-21T03:36:17.508Z,17.98
2018-06-21T03:37:17.511Z,18.05
2018-06-21T03:38:17.563Z,18.05
2018-06-21T03:39:17.512Z,18.00
2018-06-21T03:40:17.515Z,17.90
2018-06-21T03:41:17.517Z,17.93
2018-06-21T03:42:17.516Z,17.88
2018-06-21T03:43:17.519Z,17.93
2018-06-21T03:44:17.520Z,17.91
2018-06-21T03:45:17.523Z,17.94
2018-06-21T03:46:17.521Z,17.98
2018-06-21T03:47:17.523Z,17.90
2018-06-21T03:48:17.525Z,18.03
2018-06-21T03:49:17.526Z,18.02
2018-06-21T03:50:17.527Z,17.98
2018-06-21T03:51:17.529Z,18.06
2018-06-21T03:52:17.549Z,18.05
2018-06-21T03:53:17.532Z,17.94
2018-06-21T03:54:17.533Z,17.98
2018-06-21T03:55:17.538Z,17.94
2018-06-21T03:56:17.535Z,17.98
2018-06-21T03:57:17.536Z,18.03
2018-06-21T03:58:17.536Z,17.98
2018-06-21T03:59:17.538Z,17.98
2018-06-21T04:00:17.540Z,17.95
2018-06-21T04:01:17.542Z,17.98
2018-06-21T04:02:17.542Z,18.00
2018-06-21T04:03:17.544Z,17.98
2018-06-21T04:04:17.545Z,17.97
2018-06-21T04:05:17.581Z,17.98
2018-06-21T04:06:17.549Z,17.98
2018-06-21T04:07:17.550Z,18.03
2018-06-21T04:08:17.572Z,18.08
2018-06-21T04:09:17.553Z,18.03
2018-06-21T04:10:17.553Z,18.06
2018-06-21T04:11:17.558Z,18.09
2018-06-21T04:12:17.556Z,18.13
2018-06-21T04:13:17.557Z,18.15
2018-06-21T04:14:17.558Z,18.12
2018-06-21T04:15:17.560Z,18.16
2018-06-21T04:16:17.564Z,18.21
2018-06-21T04:17:17.567Z,18.19
2018-06-21T04:18:17.564Z,18.18
2018-06-21T04:19:17.565Z,18.19
2018-06-21T04:20:17.567Z,18.19
2018-06-21T04:21:17.570Z,18.24
2018-06-21T04:22:17.569Z,18.24
2018-06-21T04:23:17.572Z,18.30
2018-06-21T04:24:17.574Z,18.28
2018-06-21T04:25:17.575Z,18.39
2018-06-21T04:26:17.575Z,18.28
2018-06-21T04:27:17.576Z,18.28
2018-06-21T04:28:17.578Z,18.43
2018-06-21T04:29:17.580Z,18.41
2018-06-21T04:30:17.580Z,18.39
2018-06-21T04:31:17.583Z,18.39
2018-06-21T04:32:17.627Z,18.49
2018-06-21T04:33:17.586Z,18.51
2018-06-21T04:34:17.587Z,18.48
2018-06-21T04:35:17.589Z,18.36
2018-06-21T04:36:17.589Z,18.41
2018-06-21T04:37:17.591Z,18.46
2018-06-21T04:38:17.592Z,18.43
2018-06-21T04:39:17.594Z,18.46
2018-06-21T04:40:17.596Z,18.52
2018-06-21T04:41:17.597Z,18.51
2018-06-21T04:42:17.598Z,18.45
2018-06-21T04:43:17.599Z,18.49
2018-06-21T04:44:17.601Z,18.52
2018-06-21T04:45:17.604Z,18.60
2018-06-21T04:46:17.605Z,18.63
2018-06-21T04:47:17.605Z,18.66
2018-06-21T04:48:17.612Z,18.66
2018-06-21T04:49:17.612Z,18.71
2018-06-21T04:50:17.612Z,18.71
2018-06-21T04:51:17.613Z,18.73
2018-06-21T04:52:17.614Z,18.73
2018-06-21T04:53:17.617Z,18.73
2018-06-21T04:54:17.617Z,18.73
2018-06-21T04:55:17.619Z,18.76
2018-06-21T04:56:17.623Z,18.74
2018-06-21T04:57:17.622Z,18.74
2018-06-21T04:58:17.624Z,18.82
2018-06-21T04:59:17.626Z,18.85
2018-06-21T05:00:17.628Z,18.81
2018-06-21T05:01:17.630Z,18.78
2018-06-21T05:02:17.631Z,18.76
2018-06-21T05:03:17.636Z,18.86
2018-06-21T05:04:17.635Z,18.91
2018-06-21T05:05:17.637Z,19.00
2018-06-21T05:06:17.647Z,18.98
2018-06-21T05:07:17.639Z,19.07
2018-06-21T05:08:17.642Z,19.00
2018-06-21T05:09:17.644Z,19.07
2018-06-21T05:10:17.646Z,19.11
2018-06-21T05:11:17.647Z,19.11
2018-06-21T05:12:17.648Z,19.15
2018-06-21T05:13:17.651Z,19.12
2018-06-21T05:14:17.653Z,19.05
2018-06-21T05:15:17.655Z,19.23
2018-06-21T05:16:17.657Z,19.20
2018-06-21T05:17:17.659Z,19.27
2018-06-21T05:18:17.709Z,19.34
2018-06-21T05:19:17.663Z,19.32
2018-06-21T05:20:17.668Z,19.32
2018-06-21T05:21:17.667Z,19.47
2018-06-21T05:22:17.671Z,19.30
2018-06-21T05:23:17.674Z,19.44
2018-06-21T05:24:17.672Z,19.41
2018-06-21T05:25:17.674Z,19.49
2018-06-21T05:26:17.678Z,19.55
2018-06-21T05:27:17.678Z,19.52
2018-06-21T05:28:17.680Z,19.60
2018-06-21T05:29:17.682Z,19.71
2018-06-21T05:30:17.685Z,19.67
2018-06-21T05:31:17.687Z,19.67
2018-06-21T05:32:17.691Z,19.64
2018-06-21T05:33:17.691Z,19.70
2018-06-21T05:34:17.692Z,19.78
2018-06-21T05:35:17.696Z,19.81
2018-06-21T05:36:17.697Z,19.78
2018-06-21T05:37:17.700Z,19.85
2018-06-21T05:38:17.702Z,19.84
2018-06-21T05:39:17.704Z,19.96
2018-06-21T05:40:17.706Z,19.93
2018-06-21T05:41:17.712Z,19.92
2018-06-21T05:42:17.710Z,20.00
2018-06-21T05:43:17.714Z,20.07
2018-06-21T05:44:17.720Z,20.00
2018-06-21T05:45:17.718Z,20.08
2018-06-21T05:46:17.724Z,20.14
2018-06-21T05:47:17.722Z,20.08
2018-06-21T05:48:17.726Z,20.15
2018-06-21T05:49:17.728Z,20.15
2018-06-21T05:50:17.785Z,20.17
2018-06-21T05:51:17.732Z,20.24
2018-06-21T05:52:17.735Z,20.29
2018-06-21T05:53:17.738Z,20.29
2018-06-21T05:54:17.780Z,20.40
2018-06-21T05:55:17.743Z,20.53
2018-06-21T05:56:17.745Z,20.53
2018-06-21T05:57:17.748Z,20.58
2018-06-21T05:58:17.749Z,20.59
2018-06-21T05:59:17.754Z,20.60
2018-06-21T06:00:17.755Z,20.63
2018-06-21T06:01:17.759Z,20.77
2018-06-21T06:02:17.912Z,20.74
2018-06-21T06:03:17.792Z,20.78
2018-06-21T06:04:17.853Z,20.82
2018-06-21T06:05:17.822Z,20.90
2018-06-21T06:06:17.809Z,20.95
2018-06-21T06:07:17.880Z,20.90
2018-06-21T06:08:17.914Z,21.01
2018-06-21T06:09:17.875Z,21.03
2018-06-21T06:10:17.784Z,21.11
2018-06-21T06:11:17.786Z,21.15
2018-06-21T06:12:17.788Z,21.17
2018-06-21T06:13:17.792Z,21.17
2018-06-21T06:14:17.795Z,21.32
2018-06-21T06:15:17.799Z,21.29
2018-06-21T06:16:17.802Z,21.38
2018-06-21T06:17:17.805Z,21.47
2018-06-21T06:18:17.808Z,21.51
2018-06-21T06:19:17.810Z,21.54
2018-06-21T06:20:17.813Z,21.59
2018-06-21T06:21:17.818Z,21.70
2018-06-21T06:22:17.819Z,21.66
2018-06-21T06:23:17.823Z,21.72
2018-06-21T06:24:17.826Z,21.72
2018-06-21T06:25:17.831Z,21.91
2018-06-21T06:26:17.833Z,21.85
2018-06-21T06:27:17.837Z,21.85
2018-06-21T06:28:17.841Z,21.89
2018-06-21T06:29:17.845Z,21.97
2018-06-21T06:30:17.846Z,22.06
2018-06-21T06:31:17.850Z,22.03
2018-06-21T06:32:17.854Z,22.14
2018-06-21T06:33:17.858Z,22.10
2018-06-21T06:34:17.862Z,22.30
2018-06-21T06:35:17.866Z,22.30
2018-06-21T06:36:17.868Z,22.31
2018-06-21T06:37:17.876Z,22.46
2018-06-21T06:38:17.875Z,22.47
2018-06-21T06:39:17.880Z,22.46
2018-06-21T06:40:17.904Z,22.56
2018-06-21T06:41:17.891Z,22.68
2018-06-21T06:42:17.891Z,22.71
2018-06-21T06:43:17.895Z,22.73
2018-06-21T06:44:17.899Z,22.76
2018-06-21T06:45:17.903Z,22.88
2018-06-21T06:46:17.938Z,22.84
2018-06-21T06:47:17.911Z,22.95
2018-06-21T06:48:17.914Z,22.95
2018-06-21T06:49:17.920Z,23.07
2018-06-21T06:50:17.922Z,23.10
2018-06-21T06:51:17.928Z,23.11
2018-06-21T06:52:17.934Z,23.20
2018-06-21T06:53:17.935Z,23.18
2018-06-21T06:54:17.941Z,23.25
2018-06-21T06:55:17.943Z,23.21
2018-06-21T06:56:17.948Z,23.33
2018-06-21T06:57:17.953Z,23.36
2018-06-21T06:58:17.956Z,23.33
2018-06-21T06:59:17.961Z,23.40
2018-06-21T07:00:17.966Z,23.34
2018-06-21T07:01:17.970Z,23.44
2018-06-21T07:02:17.975Z,23.47
2018-06-21T07:03:17.978Z,23.42
2018-06-21T07:04:17.983Z,23.48
2018-06-21T07:05:17.987Z,23.58
2018-06-21T07:06:17.991Z,23.62
2018-06-21T07:07:17.998Z,23.69
2018-06-21T07:08:18.069Z,23.71
2018-06-21T07:09:18.007Z,23.74
2018-06-21T07:10:18.011Z,23.82
2018-06-21T07:11:18.015Z,23.85
2018-06-21T07:12:18.019Z,23.89
2018-06-21T07:13:18.265Z,23.91
2018-06-21T07:14:18.064Z,24.04
2018-06-21T07:15:18.035Z,24.01
2018-06-21T07:16:18.040Z,24.14
2018-06-21T07:17:18.044Z,24.16
2018-06-21T07:18:18.049Z,24.18
2018-06-21T07:19:18.053Z,24.28
2018-06-21T07:20:18.079Z,24.31
2018-06-21T07:21:18.112Z,24.43
2018-06-21T07:22:18.067Z,24.55
2018-06-21T07:23:18.075Z,24.59
2018-06-21T07:24:18.079Z,24.61
2018-06-21T07:25:18.083Z,24.56
2018-06-21T07:26:18.089Z,24.71
2018-06-21T07:27:18.093Z,24.78
2018-06-21T07:28:18.099Z,24.88
2018-06-21T07:29:18.108Z,24.96
2018-06-21T07:30:18.116Z,25.06
2018-06-21T07:31:18.115Z,25.00
2018-06-21T07:32:18.120Z,25.01
2018-06-21T07:33:18.222Z,25.24
2018-06-21T07:34:18.135Z,25.36
2018-06-21T07:35:18.139Z,25.56
2018-06-21T07:36:18.159Z,25.61
2018-06-21T07:37:18.152Z,25.71
2018-06-21T07:38:18.170Z,26.16
2018-06-21T07:39:18.168Z,26.60
2018-06-21T07:40:18.245Z,27.00
2018-06-21T07:41:18.186Z,27.35
2018-06-21T07:42:18.192Z,27.67
2018-06-21T07:43:18.203Z,27.83
2018-06-21T07:44:18.212Z,28.13
2018-06-21T07:45:18.222Z,28.43
2018-06-21T07:46:18.232Z,28.43
2018-06-21T07:47:18.245Z,28.75
2018-06-21T07:48:18.256Z,29.02
2018-06-21T07:49:18.265Z,29.10
2018-06-21T07:50:18.275Z,29.12
2018-06-21T07:51:18.286Z,28.96
2018-06-21T07:52:18.298Z,28.82
2018-06-21T07:53:18.309Z,28.68
2018-06-21T07:54:18.320Z,28.78
2018-06-21T07:55:18.333Z,28.89
2018-06-21T07:56:18.344Z,28.92
2018-06-21T07:57:18.356Z,29.07
2018-06-21T07:58:18.366Z,29.15
2018-06-21T07:59:18.380Z,29.44
2018-06-21T08:00:18.393Z,29.64
2018-06-21T08:01:18.406Z,29.77
2018-06-21T08:02:18.422Z,29.77
2018-06-21T08:03:18.434Z,29.86
2018-06-21T08:04:18.447Z,29.37
2018-06-21T08:05:18.461Z,29.30
2018-06-21T08:06:18.474Z,29.50
2018-06-21T08:07:18.489Z,29.73
2018-06-21T08:08:18.502Z,29.83
2018-06-21T08:09:18.516Z,29.52
2018-06-21T08:10:18.529Z,29.61
2018-06-21T08:11:18.544Z,29.58
2018-06-21T08:12:18.577Z,29.58
2018-06-21T08:13:18.573Z,29.57
2018-06-21T08:14:18.907Z,29.67
2018-06-21T08:15:18.866Z,29.92
2018-06-21T08:16:18.876Z,29.73
2018-06-21T08:17:18.910Z,29.86
2018-06-21T08:18:19.385Z,29.80
2018-06-21T08:19:18.660Z,29.59
2018-06-21T08:20:18.713Z,29.86
2018-06-21T08:21:18.693Z,29.71
2018-06-21T08:22:18.704Z,29.57
2018-06-21T08:23:18.735Z,29.68
2018-06-21T08:24:18.794Z,29.92
2018-06-21T08:25:18.749Z,29.92
2018-06-21T08:26:18.764Z,30.01
2018-06-21T08:27:18.808Z,29.99
2018-06-21T08:28:18.794Z,30.35
2018-06-21T08:29:18.813Z,30.32
2018-06-21T08:30:18.825Z,30.20
2018-06-21T08:31:18.840Z,30.48
2018-06-21T08:32:18.910Z,30.74
2018-06-21T08:33:18.878Z,30.91
2018-06-21T08:34:18.886Z,30.80
2018-06-21T08:35:18.905Z,30.92
2018-06-21T08:36:18.917Z,31.02
2018-06-21T08:37:18.934Z,31.22
2018-06-21T08:38:18.949Z,31.20
2018-06-21T08:39:18.963Z,31.26
2018-06-21T08:40:18.981Z,31.39
2018-06-21T08:41:18.998Z,31.28
2018-06-21T08:42:19.011Z,31.45
2018-06-21T08:43:19.029Z,31.60
2018-06-21T08:44:19.045Z,31.55
2018-06-21T08:45:19.061Z,31.51
2018-06-21T08:46:19.077Z,31.55
2018-06-21T08:47:19.093Z,31.74
2018-06-21T08:48:19.110Z,31.59
2018-06-21T08:49:19.125Z,31.73
2018-06-21T08:50:19.141Z,31.86
2018-06-21T08:51:19.158Z,32.07
2018-06-21T08:52:19.176Z,32.17
2018-06-21T08:53:19.190Z,32.29
2018-06-21T08:54:19.208Z,32.30
2018-06-21T08:55:19.225Z,32.24
2018-06-21T08:56:19.240Z,32.23
2018-06-21T08:57:19.258Z,32.39
2018-06-21T08:58:19.276Z,32.49
2018-06-21T08:59:19.325Z,32.44
2018-06-21T09:00:19.307Z,32.56
2018-06-21T09:01:19.326Z,32.66
2018-06-21T09:02:19.339Z,32.29
2018-06-21T09:03:19.357Z,32.20
2018-06-21T09:04:19.374Z,32.00
2018-06-21T09:05:19.391Z,31.81
2018-06-21T09:06:19.408Z,31.70
2018-06-21T09:07:19.424Z,31.52
2018-06-21T09:08:19.441Z,30.98
2018-06-21T09:09:19.459Z,30.35
2018-06-21T09:10:19.471Z,30.59
2018-06-21T09:11:19.488Z,30.86
2018-06-21T09:12:19.502Z,31.02
2018-06-21T09:13:19.518Z,31.29
2018-06-21T09:14:19.533Z,31.47
2018-06-21T09:15:19.561Z,31.63
2018-06-21T09:16:19.565Z,31.28
2018-06-21T09:17:19.581Z,31.18
2018-06-21T09:18:19.595Z,30.77
2018-06-21T09:19:19.829Z,30.32
2018-06-21T09:20:19.629Z,30.08
2018-06-21T09:21:19.639Z,29.94
2018-06-21T09:22:19.653Z,29.52
2018-06-21T09:23:19.666Z,29.16
2018-06-21T09:24:19.684Z,29.74
2018-06-21T09:25:19.696Z,29.86
2018-06-21T09:26:19.707Z,30.14
2018-06-21T09:27:19.720Z,29.73
2018-06-21T09:28:19.735Z,29.39
2018-06-21T09:29:19.747Z,29.59
2018-06-21T09:30:19.761Z,29.95
2018-06-21T09:31:19.798Z,29.94
2018-06-21T09:32:19.788Z,29.64
2018-06-21T09:33:19.829Z,29.69
2018-06-21T09:34:19.817Z,29.74
2018-06-21T09:35:19.825Z,29.64
2018-06-21T09:36:19.837Z,29.86
2018-06-21T09:37:19.850Z,29.73
2018-06-21T09:38:19.862Z,29.90
2018-06-21T09:39:19.874Z,30.18
2018-06-21T09:40:19.888Z,30.65
2018-06-21T09:41:19.902Z,30.73
2018-06-21T09:42:19.912Z,30.89
2018-06-21T09:43:19.927Z,30.86
2018-06-21T09:44:19.940Z,30.85
2018-06-21T09:45:19.953Z,30.85
2018-06-21T09:46:19.967Z,30.92
2018-06-21T09:47:19.982Z,30.95
2018-06-21T09:48:19.994Z,31.11
2018-06-21T09:49:20.010Z,31.42
2018-06-21T09:50:20.023Z,31.52
2018-06-21T09:51:20.039Z,31.74
2018-06-21T09:52:20.051Z,31.69
2018-06-21T09:53:20.069Z,31.77
2018-06-21T09:54:20.081Z,31.86
2018-06-21T09:55:20.095Z,31.98
2018-06-21T09:56:20.110Z,32.12
2018-06-21T09:57:20.128Z,32.01
2018-06-21T09:58:20.235Z,31.82
2018-06-21T09:59:20.218Z,31.81
2018-06-21T10:00:20.179Z,31.69
2018-06-21T10:01:20.184Z,31.77
2018-06-21T10:02:20.202Z,31.74
2018-06-21T10:03:20.214Z,31.73
2018-06-21T10:04:20.230Z,31.85
2018-06-21T10:05:20.243Z,32.04
2018-06-21T10:06:20.258Z,32.11
2018-06-21T10:07:20.272Z,32.27
2018-06-21T10:08:20.287Z,32.23
2018-06-21T10:09:20.302Z,32.07
2018-06-21T10:10:20.366Z,31.82
2018-06-21T10:11:20.333Z,31.87
2018-06-21T10:12:20.348Z,31.90
2018-06-21T10:13:20.477Z,32.01
2018-06-21T10:14:20.604Z,31.85
2018-06-21T10:15:20.395Z,32.07
2018-06-21T10:16:20.408Z,32.17
2018-06-21T10:17:20.422Z,32.29
2018-06-21T10:18:20.435Z,32.42
2018-06-21T10:19:20.451Z,32.38
2018-06-21T10:20:20.468Z,32.54
2018-06-21T10:21:20.481Z,32.30
2018-06-21T10:22:20.495Z,32.30
2018-06-21T10:23:20.512Z,32.09
2018-06-21T10:24:20.523Z,32.23
2018-06-21T10:25:20.538Z,32.00
2018-06-21T10:26:20.553Z,31.57
2018-06-21T10:27:20.576Z,31.52
2018-06-21T10:28:20.580Z,31.63
2018-06-21T10:29:20.596Z,31.72
2018-06-21T10:30:20.608Z,31.78
2018-06-21T10:31:20.622Z,31.69
2018-06-21T10:32:20.636Z,31.08
2018-06-21T10:33:20.708Z,31.02
2018-06-21T10:34:20.668Z,31.10
2018-06-21T10:35:20.678Z,30.55
2018-06-21T10:36:21.258Z,30.31
2018-06-21T10:37:20.706Z,30.56
2018-06-21T10:38:20.718Z,30.76
2018-06-21T10:39:20.730Z,31.00
2018-06-21T10:40:20.745Z,30.95
2018-06-21T10:41:20.758Z,30.78
2018-06-21T10:42:20.770Z,30.36
2018-06-21T10:43:20.782Z,29.95
2018-06-21T10:44:20.795Z,29.86
2018-06-21T10:45:20.809Z,30.10
2018-06-21T10:46:21.238Z,30.23
2018-06-21T10:47:20.832Z,30.40
2018-06-21T10:48:20.845Z,30.23
2018-06-21T10:49:20.858Z,29.98
2018-06-21T10:50:20.871Z,29.94
2018-06-21T10:51:20.882Z,29.89
2018-06-21T10:52:20.894Z,30.08
2018-06-21T10:53:20.906Z,30.17
2018-06-21T10:54:20.916Z,30.14
2018-06-21T10:55:20.931Z,30.13
2018-06-21T10:56:20.942Z,30.31
2018-06-21T10:57:20.955Z,30.39
2018-06-21T10:58:20.968Z,30.63
2018-06-21T10:59:20.978Z,30.56
2018-06-21T11:00:20.992Z,30.55
2018-06-21T11:01:21.004Z,30.59
2018-06-21T11:02:21.024Z,30.67
2018-06-21T11:03:21.060Z,30.69
2018-06-21T11:04:21.040Z,30.77
2018-06-21T11:05:21.057Z,30.95
2018-06-21T11:06:21.064Z,31.04
2018-06-21T11:07:21.339Z,31.18
2018-06-21T11:08:21.090Z,31.35
2018-06-21T11:09:21.104Z,31.39
2018-06-21T11:10:21.115Z,31.48
2018-06-21T11:11:21.128Z,31.60
2018-06-21T11:12:21.159Z,31.63
2018-06-21T11:13:21.154Z,31.51
2018-06-21T11:14:21.167Z,31.45
2018-06-21T11:15:21.178Z,31.54
2018-06-21T11:16:21.192Z,31.48
2018-06-21T11:17:21.205Z,31.50
2018-06-21T11:18:21.217Z,31.25
2018-06-21T11:19:21.231Z,31.15
2018-06-21T11:20:21.244Z,30.98
2018-06-21T11:21:21.277Z,30.98
2018-06-21T11:22:21.269Z,30.98
2018-06-21T11:23:21.281Z,30.98
2018-06-21T11:24:21.295Z,31.05
2018-06-21T11:25:21.309Z,31.13
2018-06-21T11:26:21.323Z,31.14
2018-06-21T11:27:21.425Z,31.28
2018-06-21T11:28:21.346Z,31.39
2018-06-21T11:29:21.360Z,31.48
2018-06-21T11:30:21.372Z,31.35
2018-06-21T11:31:21.384Z,31.35
2018-06-21T11:32:21.396Z,31.42
2018-06-21T11:33:21.411Z,31.28
2018-06-21T11:34:21.432Z,31.15
2018-06-21T11:35:21.436Z,31.23
2018-06-21T11:36:21.448Z,31.28
2018-06-21T11:37:21.462Z,31.26
2018-06-21T11:38:21.474Z,31.41
2018-06-21T11:39:21.486Z,31.36
2018-06-21T11:40:21.500Z,31.51
2018-06-21T11:41:21.513Z,31.44
2018-06-21T11:42:21.525Z,31.45
2018-06-21T11:43:21.538Z,31.33
2018-06-21T11:44:21.550Z,31.39
2018-06-21T11:45:21.563Z,31.23
2018-06-21T11:46:21.576Z,31.26
2018-06-21T11:47:21.589Z,31.14
2018-06-21T11:48:21.601Z,31.04
2018-06-21T11:49:21.615Z,31.15
2018-06-21T11:50:21.629Z,31.30
2018-06-21T11:51:21.639Z,31.25
2018-06-21T11:52:21.700Z,31.22
2018-06-21T11:53:21.665Z,31.26
2018-06-21T11:54:21.676Z,31.18
2018-06-21T11:55:21.689Z,31.15
2018-06-21T11:56:21.704Z,31.13
2018-06-21T11:57:21.715Z,31.10
2018-06-21T11:58:21.727Z,31.29
2018-06-21T11:59:21.740Z,31.35
2018-06-21T12:00:21.753Z,31.26
2018-06-21T12:01:21.764Z,31.15
2018-06-21T12:02:21.776Z,31.23
2018-06-21T12:03:21.793Z,30.98
2018-06-21T12:04:21.804Z,31.10
2018-06-21T12:05:21.814Z,31.10
2018-06-21T12:06:21.825Z,31.04
2018-06-21T12:07:21.838Z,31.17
2018-06-21T12:08:21.850Z,31.29
2018-06-21T12:09:21.867Z,31.20
2018-06-21T12:10:21.876Z,31.33
2018-06-21T12:11:21.888Z,31.30
2018-06-21T12:12:21.900Z,31.32
2018-06-21T12:13:21.923Z,31.36
2018-06-21T12:14:21.923Z,31.50
2018-06-21T12:15:21.935Z,31.50
2018-06-21T12:16:21.948Z,31.52
2018-06-21T12:17:21.960Z,31.66
2018-06-21T12:18:21.972Z,31.48
2018-06-21T12:19:21.984Z,31.28
2018-06-21T12:20:21.999Z,31.15
2018-06-21T12:21:22.008Z,31.22
2018-06-21T12:22:22.021Z,31.26
2018-06-21T12:23:22.034Z,31.39
2018-06-21T12:24:22.044Z,31.54
2018-06-21T12:25:22.065Z,31.20
2018-06-21T12:26:22.134Z,31.02
2018-06-21T12:27:22.080Z,30.89
2018-06-21T12:28:22.093Z,30.98
2018-06-21T12:29:22.111Z,30.86
2018-06-21T12:30:22.117Z,30.93
2018-06-21T12:31:22.129Z,30.92
2018-06-21T12:32:22.144Z,30.86
2018-06-21T12:33:22.154Z,31.10
2018-06-21T12:34:22.165Z,31.26
2018-06-21T12:35:22.175Z,31.28
2018-06-21T12:36:22.188Z,31.30
2018-06-21T12:37:22.199Z,31.17
2018-06-21T12:38:22.210Z,31.15
2018-06-21T12:39:22.222Z,31.28
2018-06-21T12:40:22.237Z,31.41
2018-06-21T12:41:22.246Z,31.25
2018-06-21T12:42:22.257Z,30.98
2018-06-21T12:43:22.268Z,30.71
2018-06-21T12:44:22.559Z,30.65
2018-06-21T12:45:22.293Z,30.51
2018-06-21T12:46:22.303Z,30.24
2018-06-21T12:47:22.320Z,30.31
2018-06-21T12:48:22.326Z,30.32
2018-06-21T12:49:22.339Z,30.33
2018-06-21T12:50:22.348Z,30.32
2018-06-21T12:51:22.361Z,30.06
2018-06-21T12:52:22.374Z,30.21